Taiban, New Mexico
Current Conditions -  °F | °C
As of 6:56 AM on Monday 24 Nov 2014 (Local Time) from K4MR Reporting Station
Clear Clear  
Wind Chill: 17°   Ceiling: Unl
Heat Index: 27°   Visibility: 10mi
Dew Point: 21°   Wind: 10mph
Humidity: 78%   Direction: 250°WSW
Pressure: 30.06"   Gusts: NA
Location:  34.44°N, 104.01°W
Report Text: K4MR 241356Z AUTO 25009KT 10SM CLR M03/M06 A3006 RMK AO2 SLP195 T10291063
Loading
Personal Weather Stations






























Interactive Weather Map New forecast layout! Learn more

10-Day Weather Forecast

Advertisements
Track Severe Weather on mobile